Time;durP1;ratioP1;P1;durP2;ratioP2;P2;SDS_P1;SDS_P2;PMS_P1;PMS_P2;Temp;Humidity;BMP_temperature;BMP_pressure;BME280_temperature;BME280_humidity;BME280_pressure;Samples;Min_cycle;Max_cycle;Signal;HPM_P1;HPM_P2
2022/06/09 00:02:01;;;;;;;0.10;0.10;;;;;;;22.09;70.94;99493.19;5054611;28;20033;-71
2022/06/09 00:04:32;;;;;;;0.10;0.10;;;;;;;22.11;72.15;99491.53;5053792;28;20021;-73
2022/06/09 00:07:02;;;;;;;0.10;0.10;;;;;;;21.90;73.18;99486.59;5052691;28;20044;-73
2022/06/09 00:09:34;;;;;;;0.13;0.13;;;;;;;21.87;73.11;99488.28;5053043;28;20447;-72
2022/06/09 00:12:00;;;;;;;0.10;0.10;;;;;;;21.80;73.82;99479.25;5053007;28;20078;-72
2022/06/09 00:14:27;;;;;;;0.10;0.10;;;;;;;21.87;73.63;99476.94;5053292;28;20021;-73
2022/06/09 00:16:53;;;;;;;0.10;0.10;;;;;;;21.77;74.17;99482.97;5036081;28;20037;-73
2022/06/09 00:19:19;;;;;;;0.10;0.10;;;;;;;21.74;74.70;99487.53;5052039;28;20398;-71
2022/06/09 00:21:44;;;;;;;0.10;0.10;;;;;;;21.71;74.46;99485.59;5052652;28;20029;-73
2022/06/09 00:24:10;;;;;;;0.10;0.10;;;;;;;21.66;74.36;99481.28;5052351;28;20029;-73
2022/06/09 00:26:36;;;;;;;0.13;0.13;;;;;;;21.67;74.21;99482.88;5052601;28;20119;-72
2022/06/09 00:29:03;;;;;;;0.10;0.10;;;;;;;21.70;74.34;99479.16;5052221;28;20025;-73
2022/06/09 00:31:28;;;;;;;0.10;0.10;;;;;;;21.72;73.55;99481.50;5052953;28;20336;-71
2022/06/09 00:33:54;;;;;;;0.10;0.10;;;;;;;21.68;73.90;99467.50;5052400;28;20021;-71
2022/06/09 00:36:20;;;;;;;0.10;0.10;;;;;;;21.69;73.59;99469.06;5052186;28;20056;-72
2022/06/09 00:38:46;;;;;;;0.10;0.10;;;;;;;21.71;73.84;99468.59;5052623;28;20025;-73
2022/06/09 00:41:12;;;;;;;0.10;0.10;;;;;;;21.71;74.19;99465.78;5052092;28;20056;-70
2022/06/09 00:43:41;;;;;;;0.10;0.10;;;;;;;21.73;73.81;99468.94;5051779;28;20060;-72
2022/06/09 00:46:10;;;;;;;0.10;0.10;;;;;;;21.76;73.44;99468.03;5053424;28;20495;-73
2022/06/09 00:48:50;;;;;;;0.10;0.10;;;;;;;21.67;73.07;99463.06;5052748;28;20036;-72
2022/06/09 00:51:36;;;;;;;0.10;0.10;;;;;;;21.74;72.96;99466.91;5052562;28;20446;-71
2022/06/09 00:54:14;;;;;;;0.17;0.17;;;;;;;21.77;72.65;99457.50;5052406;28;20116;-71
2022/06/09 00:57:14;;;;;;;0.20;0.20;;;;;;;21.74;72.54;99450.72;5052169;28;20105;-70
2022/06/09 00:59:49;;;;;;;0.10;0.10;;;;;;;21.80;72.68;99451.72;5044397;28;20041;-72
2022/06/09 01:02:18;;;;;;;0.10;0.10;;;;;;;21.76;72.70;99462.38;5035575;28;20029;-72
2022/06/09 01:04:47;;;;;;;0.10;0.10;;;;;;;21.78;72.34;99457.03;5052636;28;20032;-71
2022/06/09 01:07:18;;;;;;;0.10;0.10;;;;;;;21.66;72.49;99447.31;5051896;28;20032;-71
2022/06/09 01:09:44;;;;;;;0.10;0.10;;;;;;;21.65;72.54;99447.78;5051819;28;20024;-71
2022/06/09 01:12:29;;;;;;;0.10;0.10;;;;;;;21.54;72.67;99447.38;5035469;28;20033;-71
2022/06/09 01:15:00;;;;;;;0.15;0.15;;;;;;;21.68;72.37;99441.22;5052482;28;20043;-71
2022/06/09 01:17:40;;;;;;;0.10;0.10;;;;;;;21.47;73.74;99436.28;5051764;28;20040;-70
2022/06/09 01:20:24;;;;;;;0.10;0.10;;;;;;;21.50;73.53;99441.03;5052262;28;20136;-72
2022/06/09 01:23:17;;;;;;;0.10;0.10;;;;;;;21.48;73.73;99443.53;5051647;28;20037;-71
2022/06/09 01:26:01;;;;;;;0.20;0.20;;;;;;;21.43;73.98;99440.03;5052144;28;20029;-72
2022/06/09 01:29:01;;;;;;;0.20;0.20;;;;;;;21.41;73.96;99438.88;5052134;28;20360;-70
2022/06/09 01:31:29;;;;;;;0.20;0.20;;;;;;;21.45;73.76;99439.56;5051685;28;20036;-70
2022/06/09 01:34:27;;;;;;;0.20;0.20;;;;;;;21.38;74.37;99434.16;5051532;28;20029;-72
2022/06/09 01:36:59;;;;;;;0.15;0.15;;;;;;;21.31;74.48;99443.66;5052120;28;20033;-70
2022/06/09 01:39:54;;;;;;;0.10;0.10;;;;;;;21.26;74.75;99444.19;5055395;28;20033;-72
2022/06/09 01:42:22;;;;;;;0.20;0.20;;;;;;;21.18;74.83;99442.84;5055531;28;20442;-71
2022/06/09 01:44:50;;;;;;;0.20;0.20;;;;;;;21.17;74.92;99441.25;5055842;28;20128;-72
2022/06/09 01:47:20;;;;;;;0.10;0.10;;;;;;;21.14;75.27;99436.50;5055864;28;20372;-73
2022/06/09 01:49:49;;;;;;;0.10;0.10;;;;;;;21.20;75.18;99437.53;5055233;28;20036;-71
2022/06/09 01:52:15;;;;;;;0.10;0.10;;;;;;;21.23;75.18;99442.28;5055792;28;20101;-71
2022/06/09 01:54:41;;;;;;;0.10;0.10;;;;;;;21.35;74.65;99444.31;5055623;28;20061;-71
2022/06/09 01:57:15;;;;;;;0.10;0.10;;;;;;;21.39;74.61;99436.50;5055129;28;20037;-71
2022/06/09 01:59:50;;;;;;;0.10;0.10;;;;;;;21.38;73.97;99431.31;5055121;28;20091;-69
2022/06/09 02:02:21;;;;;;;0.20;0.20;;;;;;;21.37;73.89;99426.91;5055053;28;20037;-70
2022/06/09 02:05:19;;;;;;;0.20;0.20;;;;;;;21.36;73.50;99428.94;5055210;28;20467;-71
2022/06/09 02:07:47;;;;;;;0.20;0.20;;;;;;;21.30;73.78;99422.25;5042802;28;20064;-71
2022/06/09 02:10:39;;;;;;;0.10;0.10;;;;;;;21.24;73.57;99426.09;5055159;28;20119;-71
2022/06/09 02:13:07;;;;;;;0.10;0.10;;;;;;;21.27;74.11;99423.16;5054843;28;20029;-71
2022/06/09 02:15:38;;;;;;;0.10;0.10;;;;;;;21.26;73.52;99421.56;5055287;28;20035;-72
2022/06/09 02:18:10;;;;;;;0.10;0.10;;;;;;;21.29;73.68;99412.16;5054878;28;20029;-73
2022/06/09 02:20:42;;;;;;;0.10;0.10;;;;;;;21.26;73.58;99401.78;5054709;28;20028;-71
2022/06/09 02:23:12;;;;;;;0.20;0.20;;;;;;;21.27;73.17;99406.19;5055094;28;20025;-72
2022/06/09 02:25:39;;;;;;;0.10;0.10;;;;;;;21.26;73.48;99406.63;5054540;28;20060;-72
2022/06/09 02:28:07;;;;;;;0.10;0.10;;;;;;;21.14;73.56;99414.66;5054637;28;20086;-71
2022/06/09 02:30:34;;;;;;;0.10;0.10;;;;;;;21.04;74.04;99403.69;5054651;28;20472;-72
2022/06/09 02:32:59;;;;;;;0.15;0.15;;;;;;;21.03;73.90;99402.91;5054562;28;20138;-72
2022/06/09 02:35:25;;;;;;;0.10;0.10;;;;;;;21.06;73.94;99404.03;5054658;28;20024;-71
2022/06/09 02:37:50;;;;;;;0.20;0.20;;;;;;;20.99;73.94;99398.63;5054672;28;20472;-72
2022/06/09 02:40:16;;;;;;;0.20;0.20;;;;;;;21.14;73.38;99397.69;5054694;28;20078;-72
2022/06/09 02:42:41;;;;;;;0.10;0.10;;;;;;;21.20;73.12;99395.09;5054053;28;20461;-71
2022/06/09 02:45:08;;;;;;;0.10;0.10;;;;;;;21.09;73.94;99394.63;5054309;28;20029;-71
2022/06/09 02:47:34;;;;;;;0.10;0.10;;;;;;;20.83;74.31;99362.78;5054750;28;20367;-72
2022/06/09 02:50:00;;;;;;;0.10;0.10;;;;;;;20.99;74.63;99390.16;5053592;28;20021;-74
2022/06/09 02:52:26;;;;;;;0.20;0.20;;;;;;;20.94;74.91;99388.66;5054180;28;20040;-74
2022/06/09 02:54:54;;;;;;;0.10;0.10;;;;;;;20.87;74.32;99383.22;5054044;28;20025;-72
2022/06/09 02:57:21;;;;;;;0.20;0.20;;;;;;;20.89;74.97;99387.19;5054163;28;20025;-72
2022/06/09 02:59:46;;;;;;;0.20;0.20;;;;;;;20.97;74.54;99389.78;5054338;28;20467;-71
2022/06/09 03:02:12;;;;;;;0.10;0.10;;;;;;;21.09;73.72;99398.28;5054290;28;20036;-72
2022/06/09 03:04:37;;;;;;;0.10;0.10;;;;;;;21.08;74.05;99381.75;5053970;28;20481;-71
2022/06/09 03:07:03;;;;;;;0.10;0.10;;;;;;;21.10;74.25;99387.75;5054462;28;20037;-72
2022/06/09 03:09:29;;;;;;;0.10;0.10;;;;;;;21.08;74.32;99388.19;5054140;28;20438;-73
2022/06/09 03:11:55;;;;;;;0.10;0.10;;;;;;;21.12;74.17;99379.59;5054405;28;20033;-73
2022/06/09 03:14:20;;;;;;;0.15;0.15;;;;;;;21.08;74.33;99376.88;5037155;28;20024;-72
2022/06/09 03:16:46;;;;;;;0.10;0.10;;;;;;;21.12;74.42;99369.06;5054005;28;20075;-71
2022/06/09 03:19:12;;;;;;;0.10;0.10;;;;;;;21.13;74.97;99375.53;5053969;28;20039;-71
2022/06/09 03:21:37;;;;;;;0.10;0.10;;;;;;;21.17;74.85;99379.03;5053679;28;20472;-72
2022/06/09 03:24:04;;;;;;;0.17;0.17;;;;;;;21.06;75.49;99390.69;5053646;28;20033;-72
2022/06/09 03:26:31;;;;;;;0.20;0.20;;;;;;;21.01;76.25;99384.81;5054098;28;20037;-71
2022/06/09 03:28:57;;;;;;;0.10;0.10;;;;;;;21.00;75.79;99383.25;5053448;28;20025;-71
2022/06/09 03:31:22;;;;;;;0.20;0.20;;;;;;;20.90;76.40;99383.13;5054006;28;20127;-72
2022/06/09 03:33:49;;;;;;;0.10;0.10;;;;;;;20.89;76.75;99381.53;5053575;28;20036;-72
2022/06/09 03:36:15;;;;;;;0.10;0.10;;;;;;;20.81;77.12;99379.38;5053575;28;20486;-71
2022/06/09 03:38:41;;;;;;;0.10;0.10;;;;;;;20.69;77.71;99372.50;5053265;28;20024;-72
2022/06/09 03:41:07;;;;;;;0.10;0.10;;;;;;;20.69;77.73;99369.66;5053767;28;20115;-70
2022/06/09 03:43:37;;;;;;;0.17;0.17;;;;;;;20.77;77.33;99367.38;5053201;28;20580;-70
2022/06/09 03:46:03;;;;;;;0.20;0.20;;;;;;;20.89;77.09;99361.75;5053373;28;20597;-73
2022/06/09 03:48:30;;;;;;;0.10;0.10;;;;;;;20.93;76.84;99359.59;5053031;28;20467;-73
2022/06/09 03:50:55;;;;;;;0.13;0.13;;;;;;;20.95;76.66;99372.50;5053325;28;20049;-73
2022/06/09 03:53:24;;;;;;;0.20;0.20;;;;;;;20.97;76.62;99370.00;5053131;28;20064;-74
2022/06/09 03:55:50;;;;;;;0.10;0.10;;;;;;;20.98;76.58;99365.91;5053364;28;20363;-71
2022/06/09 03:58:15;;;;;;;0.10;0.10;;;;;;;21.05;76.42;99374.19;5052838;28;20063;-70
2022/06/09 04:00:43;;;;;;;0.20;0.20;;;;;;;21.10;75.80;99373.63;5051840;28;20404;-72
2022/06/09 04:03:09;;;;;;;0.20;0.20;;;;;;;21.17;75.80;99377.00;5053020;28;20032;-72
2022/06/09 04:05:34;;;;;;;0.10;0.10;;;;;;;21.17;75.40;99373.38;5052564;28;20380;-71
2022/06/09 04:08:02;;;;;;;0.10;0.10;;;;;;;21.21;75.47;99374.06;5052607;28;20033;-72
2022/06/09 04:10:30;;;;;;;0.10;0.10;;;;;;;21.18;75.46;99369.28;5052599;28;20033;-72
2022/06/09 04:12:56;;;;;;;0.10;0.10;;;;;;;21.20;75.63;99361.16;5052867;28;20060;-73
2022/06/09 04:15:23;;;;;;;0.10;0.10;;;;;;;21.19;75.70;99366.00;5054118;28;20112;-70
2022/06/09 04:17:52;;;;;;;0.10;0.10;;;;;;;21.27;75.78;99360.91;5053775;28;20029;-71
2022/06/09 04:20:20;;;;;;;0.10;0.10;;;;;;;21.41;75.65;99371.78;5036873;28;20375;-74
2022/06/09 04:22:47;;;;;;;0.10;0.10;;;;;;;21.46;75.03;99364.72;5053062;28;20036;-74
2022/06/09 04:25:13;;;;;;;0.17;0.17;;;;;;;21.64;75.02;99364.13;5053122;28;20025;-73
2022/06/09 04:27:39;;;;;;;0.10;0.10;;;;;;;21.84;73.95;99363.78;5052688;28;20365;-74
2022/06/09 04:30:06;;;;;;;0.20;0.20;;;;;;;21.98;73.12;99361.25;5052468;28;20068;-72
2022/06/09 04:32:32;;;;;;;0.10;0.10;;;;;;;22.02;72.54;99357.50;5048091;28;20133;-72
2022/06/09 04:34:57;;;;;;;0.10;0.10;;;;;;;22.10;71.54;99353.13;5052586;28;20076;-74
2022/06/09 04:37:59;;;;;;;0.10;0.10;;;;;;;22.21;71.39;99342.22;5052157;28;20086;-72
2022/06/09 04:40:10;;;;;;;0.13;0.13;;;;;;;22.25;70.96;99347.75;5053341;28;20038;-73
2022/06/09 04:42:36;;;;;;;0.10;0.10;;;;;;;22.32;71.47;99342.63;5035372;28;20078;-72
2022/06/09 04:45:02;;;;;;;0.10;0.10;;;;;;;22.32;71.92;99351.13;5052718;28;20444;-74
2022/06/09 04:47:27;;;;;;;0.10;0.10;;;;;;;22.21;73.07;99353.56;5052190;28;20471;-74
2022/06/09 04:49:53;;;;;;;0.10;0.10;;;;;;;22.00;74.37;99345.81;5052195;28;20039;-74
2022/06/09 04:52:21;;;;;;;0.10;0.10;;;;;;;22.06;75.49;99346.84;5052270;28;20035;-75
2022/06/09 04:54:46;;;;;;;0.10;0.10;;;;;;;22.03;76.27;99348.53;5052316;28;20087;-74
2022/06/09 04:57:12;;;;;;;0.10;0.10;;;;;;;21.88;76.39;99342.59;5052266;28;20456;-74
2022/06/09 04:59:37;;;;;;;0.20;0.20;;;;;;;21.87;77.35;99352.34;5052461;28;20052;-74
2022/06/09 05:02:03;;;;;;;0.10;0.10;;;;;;;21.84;76.51;99352.47;5051933;28;20387;-74
2022/06/09 05:04:28;;;;;;;0.10;0.10;;;;;;;21.78;76.58;99357.94;5051919;28;20029;-74
2022/06/09 05:06:54;;;;;;;0.10;0.10;;;;;;;21.84;76.98;99353.28;5052195;28;20028;-73
2022/06/09 05:09:20;;;;;;;0.20;0.20;;;;;;;21.81;77.28;99359.84;5052210;28;20037;-74
2022/06/09 05:11:45;;;;;;;0.10;0.10;;;;;;;21.86;77.69;99355.66;5052367;28;20063;-74
2022/06/09 05:14:12;;;;;;;0.20;0.20;;;;;;;21.81;78.05;99353.41;5055838;28;20036;-74
2022/06/09 05:16:38;;;;;;;0.10;0.10;;;;;;;21.83;77.48;99353.72;5056075;28;20066;-74
2022/06/09 05:19:03;;;;;;;0.10;0.10;;;;;;;21.76;78.03;99334.19;5055899;28;20025;-73
2022/06/09 05:21:29;;;;;;;0.10;0.10;;;;;;;21.69;77.94;99341.69;5055581;28;20029;-75
2022/06/09 05:23:55;;;;;;;0.20;0.20;;;;;;;21.56;77.71;99326.78;5055791;28;20098;-74
2022/06/09 05:26:21;;;;;;;0.10;0.10;;;;;;;21.55;78.37;99327.25;5055844;28;20028;-74
2022/06/09 05:28:47;;;;;;;0.10;0.10;;;;;;;21.55;79.74;99333.69;5056385;28;20087;-77
2022/06/09 05:31:15;;;;;;;0.20;0.20;;;;;;;21.51;80.67;99316.03;5056006;28;20438;-77
2022/06/09 05:33:42;;;;;;;0.10;0.10;;;;;;;21.44;81.35;99317.09;5055837;28;20028;-76
2022/06/09 05:36:07;;;;;;;0.10;0.10;;;;;;;21.45;81.99;99315.84;5056078;28;20028;-76
2022/06/09 05:46:47;;;;;;;0.10;0.10;;;;;;;21.19;81.48;99300.16;5057062;28;20086;-74
2022/06/09 05:49:13;;;;;;;0.10;0.10;;;;;;;21.23;81.51;99303.66;5055397;28;20037;-74
2022/06/09 05:51:39;;;;;;;0.10;0.10;;;;;;;21.18;82.04;99296.53;5055626;28;20035;-74
2022/06/09 05:54:05;;;;;;;0.10;0.10;;;;;;;21.23;81.65;99306.47;5055537;28;20035;-74
2022/06/09 05:56:33;;;;;;;0.15;0.15;;;;;;;21.31;82.05;99305.03;5056027;28;20406;-73
2022/06/09 05:58:59;;;;;;;0.10;0.10;;;;;;;21.56;82.05;99300.50;5055930;28;20064;-74
2022/06/09 06:01:25;;;;;;;0.10;0.10;;;;;;;21.65;81.73;99301.38;5055101;28;20029;-74
2022/06/09 06:03:51;;;;;;;0.20;0.20;;;;;;;21.75;80.70;99304.28;5054959;28;20070;-73
2022/06/09 06:06:34;;;;;;;0.10;0.10;;;;;;;21.83;81.08;99297.88;5055258;28;20083;-73
2022/06/09 06:09:06;;;;;;;0.10;0.10;;;;;;;21.84;80.42;99285.34;5054847;28;20035;-73
2022/06/09 06:11:34;;;;;;;0.10;0.10;;;;;;;21.94;79.72;99294.66;5055404;28;20379;-72
2022/06/09 06:14:01;;;;;;;0.20;0.20;;;;;;;22.01;78.98;99299.28;5054724;28;20033;-73
2022/06/09 06:16:27;;;;;;;0.10;0.10;;;;;;;22.05;77.51;99288.59;5054752;28;20017;-74
2022/06/09 06:18:52;;;;;;;0.17;0.17;;;;;;;22.09;77.05;99300.56;5055085;28;20153;-73
2022/06/09 06:21:18;;;;;;;0.10;0.10;;;;;;;22.14;77.01;99286.63;5054846;28;20037;-74
2022/06/09 06:23:44;;;;;;;0.20;0.20;;;;;;;22.13;76.17;99295.59;5053016;28;20032;-73
2022/06/09 06:26:11;;;;;;;0.20;0.20;;;;;;;22.26;75.89;99287.78;5054279;28;20029;-74
2022/06/09 06:28:37;;;;;;;0.10;0.10;;;;;;;22.45;75.37;99295.13;5054321;28;20471;-73
2022/06/09 06:31:03;;;;;;;0.20;0.20;;;;;;;22.44;73.69;99293.56;5055377;28;20497;-74
2022/06/09 06:33:29;;;;;;;0.10;0.10;;;;;;;22.41;73.01;99285.19;5054703;28;20383;-73
2022/06/09 06:35:55;;;;;;;0.15;0.15;;;;;;;22.55;73.19;99286.69;5054460;28;20028;-73
2022/06/09 06:38:21;;;;;;;0.20;0.20;;;;;;;22.75;72.13;99284.22;5054527;28;20029;-73
2022/06/09 06:40:49;;;;;;;0.20;0.20;;;;;;;22.78;71.02;99282.50;5054218;28;20036;-73
2022/06/09 06:43:15;;;;;;;0.15;0.15;;;;;;;22.82;70.61;99286.75;5037083;28;20132;-73
2022/06/09 06:45:41;;;;;;;0.10;0.10;;;;;;;22.86;70.02;99272.44;5054508;28;20029;-73
2022/06/09 06:48:07;;;;;;;0.20;0.20;;;;;;;23.02;68.80;99275.03;5055284;28;20116;-73
2022/06/09 06:50:33;;;;;;;0.10;0.10;;;;;;;23.20;68.11;99275.03;5054193;28;20092;-72
2022/06/09 06:53:01;;;;;;;0.10;0.10;;;;;;;23.61;65.28;99280.59;5053939;28;20083;-73
2022/06/09 06:55:27;;;;;;;0.10;0.10;;;;;;;23.72;64.31;99266.72;5054073;28;20426;-73
2022/06/09 06:57:53;;;;;;;0.20;0.20;;;;;;;24.75;61.32;99267.50;5053953;28;20041;-73
2022/06/09 07:00:23;;;;;;;0.10;0.10;;;;;;;25.80;58.08;99261.72;5054265;28;20029;-73
2022/06/09 07:02:49;;;;;;;0.10;0.10;;;;;;;26.16;56.70;99264.69;5053823;28;20128;-72
2022/06/09 07:05:19;;;;;;;0.10;0.10;;;;;;;25.48;56.88;99263.41;5054057;28;20088;-73
2022/06/09 07:07:44;;;;;;;0.10;0.10;;;;;;;25.46;56.93;99251.72;5055722;28;20467;-72
2022/06/09 07:10:13;;;;;;;0.10;0.10;;;;;;;24.95;57.94;99241.31;5054265;28;20078;-73
2022/06/09 07:12:39;;;;;;;0.20;0.20;;;;;;;25.50;55.92;99249.47;5055933;28;20032;-72
2022/06/09 07:15:06;;;;;;;0.10;0.10;;;;;;;26.66;53.35;99241.91;5055169;28;20017;-72
2022/06/09 07:17:31;;;;;;;0.10;0.10;;;;;;;27.35;51.09;99243.91;5055652;28;20355;-72
2022/06/09 07:19:57;;;;;;;0.10;0.10;;;;;;;27.40;48.17;99245.25;5054223;28;20033;-74
2022/06/09 07:22:23;;;;;;;0.10;0.10;;;;;;;25.45;51.54;99230.19;5054793;28;20472;-74
2022/06/09 07:24:48;;;;;;;0.10;0.10;;;;;;;25.56;53.49;99253.19;5053262;28;20544;-74
2022/06/09 07:27:14;;;;;;;0.10;0.10;;;;;;;25.26;54.26;99251.56;5054241;28;20037;-73
2022/06/09 07:29:40;;;;;;;0.10;0.10;;;;;;;25.05;55.33;99237.16;5053509;28;20021;-74
2022/06/09 07:32:07;;;;;;;0.10;0.10;;;;;;;24.99;54.50;99239.09;5053745;28;20119;-74
2022/06/09 07:34:33;;;;;;;0.10;0.10;;;;;;;25.33;54.93;99251.19;5052661;28;20049;-73
2022/06/09 07:36:59;;;;;;;0.10;0.10;;;;;;;25.30;55.79;99257.84;5054414;28;20142;-73
2022/06/09 07:39:28;;;;;;;0.10;0.10;;;;;;;25.02;56.15;99232.41;5053288;28;20512;-74
2022/06/09 07:41:56;;;;;;;0.20;0.20;;;;;;;25.18;56.54;99224.75;5053064;28;20021;-74
2022/06/09 07:44:22;;;;;;;0.10;0.10;;;;;;;25.27;56.34;99241.75;5053331;28;20033;-73
2022/06/09 07:46:48;;;;;;;0.10;0.10;;;;;;;24.97;55.96;99241.63;5053065;28;20123;-73
2022/06/09 07:49:13;;;;;;;0.10;0.10;;;;;;;24.95;56.75;99251.91;5053374;28;20029;-73
2022/06/09 07:51:39;;;;;;;0.10;0.10;;;;;;;24.96;56.69;99251.44;5053394;28;20043;-74
2022/06/09 07:54:06;;;;;;;0.10;0.10;;;;;;;24.85;57.39;99256.88;5053125;28;20506;-74
2022/06/09 07:56:32;;;;;;;0.10;0.10;;;;;;;24.67;59.27;99251.31;5052978;28;20028;-73
2022/06/09 07:59:00;;;;;;;0.10;0.10;;;;;;;24.30;60.77;99252.22;5052943;28;20055;-73
2022/06/09 08:01:26;;;;;;;0.10;0.10;;;;;;;24.19;61.01;99262.53;5053012;28;20124;-72
2022/06/09 08:03:51;;;;;;;0.20;0.20;;;;;;;23.74;62.27;99252.81;5053004;28;20476;-74
2022/06/09 08:06:17;;;;;;;0.10;0.10;;;;;;;23.48;66.38;99289.25;5052951;28;20174;-76
2022/06/09 08:08:43;;;;;;;0.10;0.10;;;;;;;23.05;67.86;99276.13;5052735;28;20040;-74
2022/06/09 08:11:09;;;;;;;0.10;0.10;;;;;;;22.94;69.22;99257.50;5052777;28;20388;-75
2022/06/09 08:13:36;;;;;;;0.10;0.10;;;;;;;23.00;69.49;99271.84;5052865;28;20029;-76
2022/06/09 08:16:03;;;;;;;0.10;0.10;;;;;;;22.92;69.65;99277.06;5052487;28;20035;-73
2022/06/09 08:18:30;;;;;;;0.10;0.10;;;;;;;22.94;70.03;99266.03;5053480;28;20032;-74
2022/06/09 08:20:56;;;;;;;0.10;0.10;;;;;;;23.19;68.94;99264.19;5053261;28;20053;-74
2022/06/09 08:23:24;;;;;;;0.20;0.20;;;;;;;23.17;67.90;99258.16;5052780;28;20364;-74
2022/06/09 08:25:55;;;;;;;0.10;0.10;;;;;;;23.49;67.67;99254.72;5052488;28;20197;-73
2022/06/09 08:28:22;;;;;;;0.20;0.20;;;;;;;23.71;66.72;99251.75;5052761;28;20108;-74
2022/06/09 08:30:53;;;;;;;0.10;0.10;;;;;;;23.75;65.78;99251.56;5052425;28;20450;-73
2022/06/09 08:33:21;;;;;;;0.20;0.20;;;;;;;23.68;65.91;99217.81;5052276;28;20021;-74
2022/06/09 08:35:47;;;;;;;0.10;0.10;;;;;;;24.11;66.14;99247.84;5052211;28;20119;-74
2022/06/09 08:38:13;;;;;;;0.20;0.20;;;;;;;24.25;66.02;99240.72;5052277;28;20033;-74
2022/06/09 08:41:08;;;;;;;0.10;0.10;;;;;;;24.11;63.89;99244.22;5052443;28;20043;-73
2022/06/09 08:43:39;;;;;;;0.20;0.20;;;;;;;23.87;63.08;99247.78;5053272;28;20501;-74
2022/06/09 08:46:28;;;;;;;0.10;0.10;;;;;;;23.93;62.64;99234.50;5052030;28;20035;-74
2022/06/09 08:48:56;;;;;;;0.20;0.20;;;;;;;23.83;61.41;99230.09;5051892;28;20102;-73
2022/06/09 08:51:37;;;;;;;0.17;0.17;;;;;;;23.87;61.75;99236.41;5052083;28;20025;-74
2022/06/09 08:54:18;;;;;;;0.10;0.10;;;;;;;23.76;60.95;99236.13;5052038;28;20033;-73
2022/06/09 08:56:45;;;;;;;0.10;0.10;;;;;;;23.89;61.31;99233.88;5053887;28;20021;-73
2022/06/09 08:59:19;;;;;;;0.10;0.10;;;;;;;23.76;60.86;99241.81;5051986;28;20029;-71
2022/06/09 09:01:56;;;;;;;0.10;0.10;;;;;;;23.69;62.08;99240.06;5052046;28;20029;-72
2022/06/09 09:04:34;;;;;;;0.10;0.10;;;;;;;23.46;65.08;99235.00;5051947;28;20032;-76
2022/06/09 09:07:27;;;;;;;0.17;0.17;;;;;;;23.24;65.60;99209.63;5052245;28;20029;-73
2022/06/09 09:09:58;;;;;;;0.10;0.10;;;;;;;23.26;66.49;99224.13;5053538;28;20040;-74
2022/06/09 09:13:01;;;;;;;0.10;0.10;;;;;;;22.86;65.29;99230.69;5052565;28;20048;-74
2022/06/09 09:15:30;;;;;;;;;;;;;;;22.89;67.24;99235.44;5052381;28;20025;-75
2022/06/09 09:18:35;;;;;;;0.20;0.20;;;;;;;22.89;68.10;99241.09;5052007;28;19924;-73
2022/06/09 09:21:18;;;;;;;0.10;0.10;;;;;;;22.86;68.56;99239.19;5021324;28;20036;-74
2022/06/09 09:24:04;;;;;;;0.10;0.10;;;;;;;22.91;68.85;99229.31;5052350;28;20075;-73
2022/06/09 09:26:59;;;;;;;0.10;0.10;;;;;;;23.32;67.75;99216.56;5052221;28;20079;-74
2022/06/09 09:29:43;;;;;;;0.13;0.13;;;;;;;23.75;66.91;99217.47;5051587;28;20029;-75
2022/06/09 09:32:14;;;;;;;0.10;0.10;;;;;;;24.35;66.80;99202.50;5051445;28;20033;-75
2022/06/09 09:34:45;;;;;;;0.10;0.10;;;;;;;24.72;64.57;99205.13;5051487;28;20151;-75
2022/06/09 09:37:32;;;;;;;0.10;0.10;;;;;;;25.76;62.05;99206.22;5052305;28;20067;-75
2022/06/09 09:40:10;;;;;;;0.20;0.20;;;;;;;25.69;58.89;99181.72;5051593;28;20045;-74
2022/06/09 09:42:42;;;;;;;0.10;0.10;;;;;;;26.33;56.87;99189.53;5052730;28;20488;-75
2022/06/09 09:45:10;;;;;;;0.10;0.10;;;;;;;25.78;57.94;99160.91;5051519;28;20472;-74
2022/06/09 09:47:49;;;;;;;0.10;0.10;;;;;;;26.03;56.95;99174.56;5051617;28;20064;-74
2022/06/09 09:50:29;;;;;;;0.10;0.10;;;;;;;26.37;55.81;99178.72;5051636;28;20587;-73
2022/06/09 09:53:20;;;;;;;0.10;0.10;;;;;;;26.33;54.56;99161.03;5051808;28;20055;-74
2022/06/09 09:56:32;;;;;;;0.10;0.10;;;;;;;27.01;52.89;99162.75;5024920;28;20488;-74
2022/06/09 09:59:19;;;;;;;0.10;0.10;;;;;;;27.80;51.26;99161.53;5013535;28;20030;-73
2022/06/09 10:09:59;;;;;;;0.10;0.10;;;;;;;28.36;50.12;99161.22;5056554;28;20087;-74
2022/06/09 10:12:34;;;;;;;0.10;0.10;;;;;;;28.48;48.36;99147.75;5055130;28;20045;-74
2022/06/09 10:15:14;;;;;;;0.10;0.10;;;;;;;28.59;47.15;99154.31;5055504;28;20021;-74
2022/06/09 10:17:51;;;;;;;0.10;0.10;;;;;;;28.95;46.49;99134.75;5055236;28;20035;-74
2022/06/09 10:20:21;;;;;;;0.10;0.10;;;;;;;28.97;45.93;99127.19;5055373;28;20375;-75
2022/06/09 10:22:57;;;;;;;0.10;0.10;;;;;;;29.18;47.18;99130.66;5055379;28;20032;-73
2022/06/09 10:25:33;;;;;;;0.10;0.10;;;;;;;28.49;46.95;99126.44;5055494;28;20068;-74
2022/06/09 10:28:06;;;;;;;0.10;0.10;;;;;;;27.99;48.03;99124.78;5056850;28;20068;-74
2022/06/09 10:30:48;;;;;;;0.10;0.10;;;;;;;28.16;48.08;99122.06;5056400;28;20029;-73
2022/06/09 10:33:33;;;;;;;0.10;0.10;;;;;;;28.54;47.46;99114.22;5055398;28;20035;-75
2022/06/09 10:36:31;;;;;;;0.10;0.10;;;;;;;28.63;47.16;99126.25;5054713;28;20041;-75
2022/06/09 10:39:18;;;;;;;0.10;0.10;;;;;;;28.41;46.92;99121.19;5055226;28;20029;-74
2022/06/09 10:41:57;;;;;;;0.10;0.10;;;;;;;28.02;49.07;99112.34;5055629;28;20040;-74
2022/06/09 10:44:48;;;;;;;0.10;0.10;;;;;;;27.75;51.32;99104.31;5054237;28;20045;-75
2022/06/09 10:57:02;;;;;;;0.10;0.10;;;;;;;26.69;52.71;99095.44;5041636;28;20044;-74
2022/06/09 10:59:41;;;;;;;0.10;0.10;;;;;;;26.71;52.59;99092.84;5054120;28;20488;-74
2022/06/09 11:02:23;;;;;;;0.10;0.10;;;;;;;26.61;52.00;99084.44;5054599;28;20131;-74
2022/06/09 11:04:51;;;;;;;0.10;0.10;;;;;;;26.85;51.47;99087.06;5053924;28;20025;-74
2022/06/09 11:07:35;;;;;;;0.10;0.10;;;;;;;26.79;51.71;99093.97;5054455;28;20436;-75
2022/06/09 11:10:14;;;;;;;0.10;0.10;;;;;;;27.05;51.25;99083.38;5053353;28;20066;-73
2022/06/09 11:12:56;;;;;;;0.10;0.10;;;;;;;27.07;50.97;99075.13;5053839;28;20025;-73
2022/06/09 11:15:35;;;;;;;0.10;0.10;;;;;;;26.86;51.80;99045.81;5055161;28;20474;-73
2022/06/09 11:18:28;;;;;;;0.10;0.10;;;;;;;26.84;50.61;99073.28;5053915;28;20029;-74
2022/06/09 11:21:15;;;;;;;;;;;;;;;26.71;51.56;99064.31;5055753;28;20028;-75
2022/06/09 11:24:22;;;;;;;0.10;0.10;;;;;;;27.14;51.28;99060.41;5054171;28;19909;-74
2022/06/09 11:27:09;;;;;;;0.10;0.10;;;;;;;27.60;50.48;99068.09;5052974;28;20075;-74
2022/06/09 11:30:18;;;;;;;0.20;0.20;;;;;;;27.52;50.41;99069.06;5053493;28;20032;-74
2022/06/09 11:33:12;;;;;;;0.10;0.10;;;;;;;27.27;51.15;99065.72;5053534;28;20028;-72
2022/06/09 11:35:55;;;;;;;0.10;0.10;;;;;;;27.32;50.83;99072.75;5054986;28;20025;-73
2022/06/09 11:38:20;;;;;;;;;;;;;;;27.17;50.36;99055.78;5054030;28;20467;-74
2022/06/09 11:41:04;;;;;;;0.10;0.10;;;;;;;26.89;50.23;99050.50;5053385;28;19931;-73
2022/06/09 11:43:38;;;;;;;0.10;0.10;;;;;;;27.01;50.98;99051.44;5054429;28;20132;-72
2022/06/09 11:46:13;;;;;;;0.10;0.10;;;;;;;27.04;50.47;99041.84;5053208;28;20040;-73
2022/06/09 11:48:47;;;;;;;0.10;0.10;;;;;;;27.15;49.79;99033.41;5053257;28;20040;-73
2022/06/09 11:51:18;;;;;;;0.10;0.10;;;;;;;26.89;49.65;99033.38;5052981;28;20025;-74
2022/06/09 11:53:55;;;;;;;0.10;0.10;;;;;;;26.98;49.79;99029.59;5052784;28;20028;-72
2022/06/09 11:57:09;;;;;;;0.10;0.10;;;;;;;27.08;50.06;99036.72;5053241;28;20025;-75
2022/06/09 12:00:02;;;;;;;0.10;0.10;;;;;;;27.09;50.27;99038.28;5047651;28;20037;-74
2022/06/09 12:02:40;;;;;;;0.10;0.10;;;;;;;27.05;49.37;99037.69;5053519;28;20031;-73
2022/06/09 12:05:27;;;;;;;0.10;0.10;;;;;;;26.57;51.00;99037.44;5053568;28;20371;-73
2022/06/09 12:08:11;;;;;;;0.10;0.10;;;;;;;26.39;50.93;99025.00;5050596;28;20117;-75
2022/06/09 12:10:58;;;;;;;0.10;0.10;;;;;;;26.52;51.04;99018.97;5052628;28;20036;-74
2022/06/09 12:13:26;;;;;;;0.10;0.10;;;;;;;26.44;51.72;99015.00;5052632;28;20029;-72
2022/06/09 12:16:00;;;;;;;0.10;0.10;;;;;;;26.26;52.35;99006.69;5052953;28;20032;-72
2022/06/09 12:18:28;;;;;;;0.10;0.10;;;;;;;25.92;53.56;98959.88;5052733;28;20119;-72
2022/06/09 12:21:15;;;;;;;0.10;0.10;;;;;;;25.79;54.39;99003.75;5053101;28;20064;-71
2022/06/09 12:23:49;;;;;;;0.10;0.10;;;;;;;25.62;55.60;98997.00;5054476;28;20070;-72